sensor_id;sensor_type;location;lat;lon;timestamp;P1;durP1;ratioP1;P2;durP2;ratioP2
5569;SDS011;2808;51.240;6.794;2022-08-21T00:01:49;14.07;;;5.10;;
5569;SDS011;2808;51.240;6.794;2022-08-21T00:04:18;14.20;;;5.70;;
5569;SDS011;2808;51.240;6.794;2022-08-21T00:06:46;12.60;;;4.73;;
5569;SDS011;2808;51.240;6.794;2022-08-21T00:09:13;18.53;;;5.20;;
5569;SDS011;2808;51.240;6.794;2022-08-21T00:11:42;15.07;;;4.87;;
5569;SDS011;2808;51.240;6.794;2022-08-21T00:14:10;20.93;;;5.10;;
5569;SDS011;2808;51.240;6.794;2022-08-21T00:16:38;12.87;;;5.20;;
5569;SDS011;2808;51.240;6.794;2022-08-21T00:19:07;18.40;;;5.83;;
5569;SDS011;2808;51.240;6.794;2022-08-21T00:21:36;19.67;;;6.13;;
5569;SDS011;2808;51.240;6.794;2022-08-21T00:24:04;11.53;;;5.03;;
5569;SDS011;2808;51.240;6.794;2022-08-21T00:26:32;13.97;;;4.80;;
5569;SDS011;2808;51.240;6.794;2022-08-21T00:28:59;12.10;;;5.60;;
5569;SDS011;2808;51.240;6.794;2022-08-21T00:31:27;20.27;;;6.60;;
5569;SDS011;2808;51.240;6.794;2022-08-21T00:33:54;12.03;;;5.17;;
5569;SDS011;2808;51.240;6.794;2022-08-21T00:36:21;13.10;;;5.40;;
5569;SDS011;2808;51.240;6.794;2022-08-21T00:38:50;13.97;;;5.37;;
5569;SDS011;2808;51.240;6.794;2022-08-21T00:41:18;13.97;;;5.70;;
5569;SDS011;2808;51.240;6.794;2022-08-21T00:43:46;13.23;;;4.77;;
5569;SDS011;2808;51.240;6.794;2022-08-21T00:46:13;16.73;;;5.60;;
5569;SDS011;2808;51.240;6.794;2022-08-21T00:48:40;16.20;;;5.80;;
5569;SDS011;2808;51.240;6.794;2022-08-21T00:51:08;15.43;;;5.23;;
5569;SDS011;2808;51.240;6.794;2022-08-21T00:53:39;14.43;;;5.47;;
5569;SDS011;2808;51.240;6.794;2022-08-21T00:56:11;15.73;;;5.73;;
5569;SDS011;2808;51.240;6.794;2022-08-21T00:58:51;19.20;;;5.30;;
5569;SDS011;2808;51.240;6.794;2022-08-21T01:01:41;15.30;;;6.63;;
5569;SDS011;2808;51.240;6.794;2022-08-21T01:08:01;11.97;;;5.33;;
5569;SDS011;2808;51.240;6.794;2022-08-21T01:11:13;16.40;;;6.10;;
5569;SDS011;2808;51.240;6.794;2022-08-21T01:14:07;13.73;;;5.70;;
5569;SDS011;2808;51.240;6.794;2022-08-21T01:17:17;12.03;;;6.10;;
5569;SDS011;2808;51.240;6.794;2022-08-21T01:31:03;16.07;;;6.90;;
5569;SDS011;2808;51.240;6.794;2022-08-21T01:50:32;21.17;;;6.80;;
5569;SDS011;2808;51.240;6.794;2022-08-21T01:53:01;12.93;;;7.00;;
5569;SDS011;2808;51.240;6.794;2022-08-21T01:55:35;14.83;;;7.50;;
5569;SDS011;2808;51.240;6.794;2022-08-21T02:01:10;12.90;;;6.63;;
5569;SDS011;2808;51.240;6.794;2022-08-21T02:04:10;13.50;;;7.53;;
5569;SDS011;2808;51.240;6.794;2022-08-21T02:06:56;18.00;;;7.97;;
5569;SDS011;2808;51.240;6.794;2022-08-21T02:09:48;15.90;;;7.13;;
5569;SDS011;2808;51.240;6.794;2022-08-21T02:12:25;18.90;;;8.47;;
5569;SDS011;2808;51.240;6.794;2022-08-21T02:15:02;20.83;;;8.40;;
5569;SDS011;2808;51.240;6.794;2022-08-21T02:41:25;17.47;;;8.30;;
5569;SDS011;2808;51.240;6.794;2022-08-21T02:48:07;16.27;;;8.83;;
5569;SDS011;2808;51.240;6.794;2022-08-21T02:58:22;22.53;;;8.57;;
5569;SDS011;2808;51.240;6.794;2022-08-21T03:08:12;19.07;;;8.30;;
5569;SDS011;2808;51.240;6.794;2022-08-21T03:10:46;17.60;;;8.63;;
5569;SDS011;2808;51.240;6.794;2022-08-21T03:13:20;21.07;;;8.27;;
5569;SDS011;2808;51.240;6.794;2022-08-21T03:16:17;20.50;;;8.33;;
5569;SDS011;2808;51.240;6.794;2022-08-21T03:19:02;18.00;;;8.70;;
5569;SDS011;2808;51.240;6.794;2022-08-21T03:22:42;21.07;;;8.30;;
5569;SDS011;2808;51.240;6.794;2022-08-21T03:25:32;22.77;;;9.60;;
5569;SDS011;2808;51.240;6.794;2022-08-21T03:29:12;24.77;;;9.60;;
5569;SDS011;2808;51.240;6.794;2022-08-21T03:31:47;17.27;;;8.60;;
5569;SDS011;2808;51.240;6.794;2022-08-21T03:43:36;23.13;;;9.67;;
5569;SDS011;2808;51.240;6.794;2022-08-21T04:00:19;21.63;;;9.17;;
5569;SDS011;2808;51.240;6.794;2022-08-21T04:02:54;23.30;;;9.67;;
5569;SDS011;2808;51.240;6.794;2022-08-21T04:05:26;17.50;;;9.07;;
5569;SDS011;2808;51.240;6.794;2022-08-21T04:08:14;23.87;;;10.53;;
5569;SDS011;2808;51.240;6.794;2022-08-21T04:11:25;15.33;;;8.20;;
5569;SDS011;2808;51.240;6.794;2022-08-21T04:14:18;17.97;;;10.20;;
5569;SDS011;2808;51.240;6.794;2022-08-21T04:17:06;19.70;;;10.10;;
5569;SDS011;2808;51.240;6.794;2022-08-21T04:22:49;20.37;;;9.77;;
5569;SDS011;2808;51.240;6.794;2022-08-21T04:26:11;17.90;;;9.90;;
5569;SDS011;2808;51.240;6.794;2022-08-21T04:29:06;21.10;;;9.00;;
5569;SDS011;2808;51.240;6.794;2022-08-21T04:31:52;20.07;;;9.83;;
5569;SDS011;2808;51.240;6.794;2022-08-21T04:34:28;20.03;;;9.40;;
5569;SDS011;2808;51.240;6.794;2022-08-21T04:37:16;20.63;;;10.20;;
5569;SDS011;2808;51.240;6.794;2022-08-21T04:44:34;17.53;;;9.60;;
5569;SDS011;2808;51.240;6.794;2022-08-21T04:56:04;21.43;;;9.93;;
5569;SDS011;2808;51.240;6.794;2022-08-21T04:58:42;24.33;;;10.00;;
5569;SDS011;2808;51.240;6.794;2022-08-21T05:01:50;17.53;;;8.80;;
5569;SDS011;2808;51.240;6.794;2022-08-21T05:05:08;20.27;;;9.00;;
5569;SDS011;2808;51.240;6.794;2022-08-21T05:07:35;21.47;;;9.80;;
5569;SDS011;2808;51.240;6.794;2022-08-21T05:10:07;17.17;;;9.30;;
5569;SDS011;2808;51.240;6.794;2022-08-21T05:12:35;15.80;;;9.37;;
5569;SDS011;2808;51.240;6.794;2022-08-21T05:15:03;19.47;;;9.90;;
5569;SDS011;2808;51.240;6.794;2022-08-21T05:17:30;22.33;;;9.63;;
5569;SDS011;2808;51.240;6.794;2022-08-21T05:20:01;19.43;;;9.70;;
5569;SDS011;2808;51.240;6.794;2022-08-21T05:22:30;15.10;;;8.90;;
5569;SDS011;2808;51.240;6.794;2022-08-21T05:24:57;16.77;;;9.50;;
5569;SDS011;2808;51.240;6.794;2022-08-21T05:27:26;15.40;;;8.87;;
5569;SDS011;2808;51.240;6.794;2022-08-21T05:29:55;22.50;;;9.00;;
5569;SDS011;2808;51.240;6.794;2022-08-21T05:32:23;24.80;;;10.50;;
5569;SDS011;2808;51.240;6.794;2022-08-21T05:34:52;16.83;;;9.03;;
5569;SDS011;2808;51.240;6.794;2022-08-21T05:37:20;18.00;;;9.60;;
5569;SDS011;2808;51.240;6.794;2022-08-21T05:39:48;20.10;;;8.30;;
5569;SDS011;2808;51.240;6.794;2022-08-21T05:42:15;17.60;;;8.40;;
5569;SDS011;2808;51.240;6.794;2022-08-21T05:44:44;23.53;;;8.70;;
5569;SDS011;2808;51.240;6.794;2022-08-21T05:47:11;13.50;;;7.53;;
5569;SDS011;2808;51.240;6.794;2022-08-21T05:49:39;19.60;;;9.00;;
5569;SDS011;2808;51.240;6.794;2022-08-21T05:52:07;16.43;;;8.53;;
5569;SDS011;2808;51.240;6.794;2022-08-21T05:54:36;19.77;;;9.10;;
5569;SDS011;2808;51.240;6.794;2022-08-21T05:57:03;16.43;;;8.77;;
5569;SDS011;2808;51.240;6.794;2022-08-21T05:59:33;16.70;;;8.13;;
5569;SDS011;2808;51.240;6.794;2022-08-21T06:02:02;19.93;;;8.77;;
5569;SDS011;2808;51.240;6.794;2022-08-21T06:04:30;19.33;;;8.97;;
5569;SDS011;2808;51.240;6.794;2022-08-21T06:07:02;16.13;;;8.73;;
5569;SDS011;2808;51.240;6.794;2022-08-21T06:09:30;17.23;;;9.00;;
5569;SDS011;2808;51.240;6.794;2022-08-21T06:11:58;17.03;;;8.97;;
5569;SDS011;2808;51.240;6.794;2022-08-21T06:14:29;16.60;;;8.37;;
5569;SDS011;2808;51.240;6.794;2022-08-21T06:17:00;17.30;;;7.60;;
5569;SDS011;2808;51.240;6.794;2022-08-21T06:19:30;15.67;;;7.53;;
5569;SDS011;2808;51.240;6.794;2022-08-21T06:21:58;18.70;;;8.17;;
5569;SDS011;2808;51.240;6.794;2022-08-21T06:24:26;15.43;;;7.40;;
5569;SDS011;2808;51.240;6.794;2022-08-21T06:26:54;15.73;;;7.17;;
5569;SDS011;2808;51.240;6.794;2022-08-21T06:29:22;17.53;;;7.20;;
5569;SDS011;2808;51.240;6.794;2022-08-21T06:31:50;17.30;;;6.63;;
5569;SDS011;2808;51.240;6.794;2022-08-21T06:34:19;16.37;;;5.60;;
5569;SDS011;2808;51.240;6.794;2022-08-21T06:36:47;13.97;;;5.20;;
5569;SDS011;2808;51.240;6.794;2022-08-21T06:39:14;16.90;;;6.67;;
5569;SDS011;2808;51.240;6.794;2022-08-21T06:41:42;12.13;;;4.60;;
5569;SDS011;2808;51.240;6.794;2022-08-21T06:44:09;14.90;;;4.80;;
5569;SDS011;2808;51.240;6.794;2022-08-21T06:46:37;18.60;;;4.70;;
5569;SDS011;2808;51.240;6.794;2022-08-21T06:49:05;10.03;;;3.80;;
5569;SDS011;2808;51.240;6.794;2022-08-21T06:51:33;15.63;;;3.40;;
5569;SDS011;2808;51.240;6.794;2022-08-21T06:54:01;11.20;;;4.20;;
5569;SDS011;2808;51.240;6.794;2022-08-21T06:56:28;13.80;;;3.77;;
5569;SDS011;2808;51.240;6.794;2022-08-21T06:58:56;11.67;;;3.97;;
5569;SDS011;2808;51.240;6.794;2022-08-21T07:01:24;10.33;;;3.70;;
5569;SDS011;2808;51.240;6.794;2022-08-21T07:03:52;12.27;;;3.27;;
5569;SDS011;2808;51.240;6.794;2022-08-21T07:06:20;12.80;;;3.30;;
5569;SDS011;2808;51.240;6.794;2022-08-21T07:08:49;15.17;;;3.47;;
5569;SDS011;2808;51.240;6.794;2022-08-21T07:11:17;9.57;;;3.50;;
5569;SDS011;2808;51.240;6.794;2022-08-21T07:13:46;11.23;;;3.47;;
5569;SDS011;2808;51.240;6.794;2022-08-21T07:16:16;31.73;;;4.37;;
5569;SDS011;2808;51.240;6.794;2022-08-21T07:18:43;10.60;;;3.33;;
5569;SDS011;2808;51.240;6.794;2022-08-21T07:21:11;13.37;;;3.40;;
5569;SDS011;2808;51.240;6.794;2022-08-21T07:23:39;10.87;;;3.40;;
5569;SDS011;2808;51.240;6.794;2022-08-21T07:26:13;11.80;;;3.87;;
5569;SDS011;2808;51.240;6.794;2022-08-21T07:28:42;11.30;;;3.00;;
5569;SDS011;2808;51.240;6.794;2022-08-21T07:31:09;8.23;;;3.20;;
5569;SDS011;2808;51.240;6.794;2022-08-21T07:33:39;11.80;;;3.80;;
5569;SDS011;2808;51.240;6.794;2022-08-21T07:36:07;15.10;;;2.97;;
5569;SDS011;2808;51.240;6.794;2022-08-21T07:38:35;17.77;;;3.13;;
5569;SDS011;2808;51.240;6.794;2022-08-21T07:41:06;12.03;;;2.50;;
5569;SDS011;2808;51.240;6.794;2022-08-21T07:43:38;11.53;;;3.07;;
5569;SDS011;2808;51.240;6.794;2022-08-21T07:46:05;9.17;;;3.10;;
5569;SDS011;2808;51.240;6.794;2022-08-21T07:48:33;11.87;;;3.20;;
5569;SDS011;2808;51.240;6.794;2022-08-21T07:51:01;12.17;;;3.43;;
5569;SDS011;2808;51.240;6.794;2022-08-21T07:53:32;9.00;;;2.57;;
5569;SDS011;2808;51.240;6.794;2022-08-21T07:56:02;8.63;;;2.60;;
5569;SDS011;2808;51.240;6.794;2022-08-21T07:58:30;10.10;;;2.40;;
5569;SDS011;2808;51.240;6.794;2022-08-21T08:00:59;7.63;;;2.23;;
5569;SDS011;2808;51.240;6.794;2022-08-21T08:03:26;7.97;;;2.40;;
5569;SDS011;2808;51.240;6.794;2022-08-21T08:05:54;8.20;;;2.10;;
5569;SDS011;2808;51.240;6.794;2022-08-21T08:08:22;9.00;;;2.40;;
5569;SDS011;2808;51.240;6.794;2022-08-21T08:10:52;11.80;;;2.53;;
5569;SDS011;2808;51.240;6.794;2022-08-21T08:13:22;7.47;;;2.43;;
5569;SDS011;2808;51.240;6.794;2022-08-21T08:15:50;8.20;;;2.00;;
5569;SDS011;2808;51.240;6.794;2022-08-21T08:18:19;9.40;;;2.50;;
5569;SDS011;2808;51.240;6.794;2022-08-21T08:20:46;9.23;;;2.53;;
5569;SDS011;2808;51.240;6.794;2022-08-21T08:23:14;7.73;;;2.20;;
5569;SDS011;2808;51.240;6.794;2022-08-21T08:25:42;7.17;;;2.47;;
5569;SDS011;2808;51.240;6.794;2022-08-21T08:28:09;8.10;;;2.40;;
5569;SDS011;2808;51.240;6.794;2022-08-21T08:30:37;8.63;;;2.33;;
5569;SDS011;2808;51.240;6.794;2022-08-21T08:33:04;6.83;;;1.90;;
5569;SDS011;2808;51.240;6.794;2022-08-21T08:35:33;9.37;;;1.90;;
5569;SDS011;2808;51.240;6.794;2022-08-21T08:38:01;10.23;;;2.20;;
5569;SDS011;2808;51.240;6.794;2022-08-21T08:40:31;12.93;;;2.00;;
5569;SDS011;2808;51.240;6.794;2022-08-21T08:43:03;7.90;;;2.17;;
5569;SDS011;2808;51.240;6.794;2022-08-21T08:45:32;8.77;;;2.07;;
5569;SDS011;2808;51.240;6.794;2022-08-21T08:48:04;4.53;;;1.60;;
5569;SDS011;2808;51.240;6.794;2022-08-21T08:50:39;12.00;;;2.50;;
5569;SDS011;2808;51.240;6.794;2022-08-21T08:53:11;9.70;;;1.93;;
5569;SDS011;2808;51.240;6.794;2022-08-21T08:55:43;10.60;;;2.57;;
5569;SDS011;2808;51.240;6.794;2022-08-21T08:58:13;10.93;;;2.40;;
5569;SDS011;2808;51.240;6.794;2022-08-21T09:00:46;6.47;;;2.13;;
5569;SDS011;2808;51.240;6.794;2022-08-21T09:03:16;8.27;;;2.10;;
5569;SDS011;2808;51.240;6.794;2022-08-21T09:05:50;7.43;;;2.20;;
5569;SDS011;2808;51.240;6.794;2022-08-21T09:08:37;4.87;;;1.80;;
5569;SDS011;2808;51.240;6.794;2022-08-21T09:11:15;6.80;;;1.90;;
5569;SDS011;2808;51.240;6.794;2022-08-21T09:13:56;5.17;;;1.97;;
5569;SDS011;2808;51.240;6.794;2022-08-21T09:16:37;6.70;;;1.80;;
5569;SDS011;2808;51.240;6.794;2022-08-21T09:19:27;6.70;;;2.00;;
5569;SDS011;2808;51.240;6.794;2022-08-21T09:22:08;4.07;;;1.40;;
5569;SDS011;2808;51.240;6.794;2022-08-21T09:24:44;7.30;;;1.83;;
5569;SDS011;2808;51.240;6.794;2022-08-21T09:27:20;6.63;;;2.40;;
5569;SDS011;2808;51.240;6.794;2022-08-21T09:29:49;5.50;;;1.93;;
5569;SDS011;2808;51.240;6.794;2022-08-21T09:32:23;6.87;;;2.10;;
5569;SDS011;2808;51.240;6.794;2022-08-21T09:34:56;7.87;;;2.40;;
5569;SDS011;2808;51.240;6.794;2022-08-21T09:37:27;6.57;;;2.03;;
5569;SDS011;2808;51.240;6.794;2022-08-21T09:39:57;12.57;;;2.37;;
5569;SDS011;2808;51.240;6.794;2022-08-21T09:45:20;7.20;;;1.80;;
5569;SDS011;2808;51.240;6.794;2022-08-21T09:47:48;5.73;;;2.30;;
5569;SDS011;2808;51.240;6.794;2022-08-21T09:50:16;7.73;;;2.13;;
5569;SDS011;2808;51.240;6.794;2022-08-21T09:52:49;4.80;;;1.80;;
5569;SDS011;2808;51.240;6.794;2022-08-21T09:55:20;6.00;;;1.90;;
5569;SDS011;2808;51.240;6.794;2022-08-21T09:58:15;7.43;;;1.97;;
5569;SDS011;2808;51.240;6.794;2022-08-21T10:00:43;4.53;;;1.60;;
5569;SDS011;2808;51.240;6.794;2022-08-21T10:03:23;10.40;;;2.07;;
5569;SDS011;2808;51.240;6.794;2022-08-21T10:06:02;7.80;;;1.83;;
5569;SDS011;2808;51.240;6.794;2022-08-21T10:08:42;8.20;;;1.80;;
5569;SDS011;2808;51.240;6.794;2022-08-21T10:11:13;5.93;;;2.27;;
5569;SDS011;2808;51.240;6.794;2022-08-21T10:13:47;5.33;;;1.60;;
5569;SDS011;2808;51.240;6.794;2022-08-21T10:16:28;8.30;;;1.80;;
5569;SDS011;2808;51.240;6.794;2022-08-21T10:19:07;6.77;;;1.90;;
5569;SDS011;2808;51.240;6.794;2022-08-21T10:21:54;4.70;;;1.80;;
5569;SDS011;2808;51.240;6.794;2022-08-21T10:24:32;7.87;;;1.73;;
5569;SDS011;2808;51.240;6.794;2022-08-21T10:27:18;5.80;;;1.83;;
5569;SDS011;2808;51.240;6.794;2022-08-21T10:29:56;6.73;;;1.83;;
5569;SDS011;2808;51.240;6.794;2022-08-21T10:32:42;7.27;;;2.10;;
5569;SDS011;2808;51.240;6.794;2022-08-21T10:35:24;5.13;;;2.10;;
5569;SDS011;2808;51.240;6.794;2022-08-21T10:41:07;3.87;;;1.47;;
5569;SDS011;2808;51.240;6.794;2022-08-21T10:43:49;7.80;;;1.90;;
5569;SDS011;2808;51.240;6.794;2022-08-21T10:46:44;7.20;;;1.80;;
5569;SDS011;2808;51.240;6.794;2022-08-21T10:49:26;7.63;;;2.00;;
5569;SDS011;2808;51.240;6.794;2022-08-21T10:52:09;4.63;;;1.53;;
5569;SDS011;2808;51.240;6.794;2022-08-21T10:54:57;4.03;;;1.40;;
5569;SDS011;2808;51.240;6.794;2022-08-21T10:57:38;6.83;;;1.90;;
5569;SDS011;2808;51.240;6.794;2022-08-21T11:00:16;6.27;;;1.70;;
5569;SDS011;2808;51.240;6.794;2022-08-21T11:02:47;8.57;;;1.87;;
5569;SDS011;2808;51.240;6.794;2022-08-21T11:05:21;5.77;;;1.70;;
5569;SDS011;2808;51.240;6.794;2022-08-21T11:07:54;8.47;;;2.40;;
5569;SDS011;2808;51.240;6.794;2022-08-21T11:10:35;10.00;;;2.33;;
5569;SDS011;2808;51.240;6.794;2022-08-21T11:13:12;4.50;;;2.00;;
5569;SDS011;2808;51.240;6.794;2022-08-21T11:15:45;7.50;;;2.00;;
5569;SDS011;2808;51.240;6.794;2022-08-21T11:18:24;6.93;;;2.03;;
5569;SDS011;2808;51.240;6.794;2022-08-21T11:20:58;8.57;;;1.90;;
5569;SDS011;2808;51.240;6.794;2022-08-21T11:23:36;6.37;;;1.80;;
5569;SDS011;2808;51.240;6.794;2022-08-21T11:26:10;6.60;;;2.17;;
5569;SDS011;2808;51.240;6.794;2022-08-21T11:28:46;8.03;;;2.47;;
5569;SDS011;2808;51.240;6.794;2022-08-21T11:31:25;6.37;;;2.37;;
5569;SDS011;2808;51.240;6.794;2022-08-21T11:34:10;7.27;;;1.93;;
5569;SDS011;2808;51.240;6.794;2022-08-21T11:36:49;9.37;;;2.10;;
5569;SDS011;2808;51.240;6.794;2022-08-21T11:39:25;7.67;;;2.00;;
5569;SDS011;2808;51.240;6.794;2022-08-21T11:42:02;5.57;;;1.77;;
5569;SDS011;2808;51.240;6.794;2022-08-21T11:44:41;6.03;;;1.90;;
5569;SDS011;2808;51.240;6.794;2022-08-21T11:47:19;6.30;;;1.90;;
5569;SDS011;2808;51.240;6.794;2022-08-21T11:49:59;11.20;;;2.60;;
5569;SDS011;2808;51.240;6.794;2022-08-21T11:52:38;5.23;;;1.70;;
5569;SDS011;2808;51.240;6.794;2022-08-21T11:55:10;6.53;;;2.00;;
5569;SDS011;2808;51.240;6.794;2022-08-21T11:57:45;8.50;;;1.90;;
5569;SDS011;2808;51.240;6.794;2022-08-21T12:00:22;8.50;;;2.07;;
5569;SDS011;2808;51.240;6.794;2022-08-21T12:02:54;7.07;;;1.90;;
5569;SDS011;2808;51.240;6.794;2022-08-21T12:05:29;8.20;;;1.80;;
5569;SDS011;2808;51.240;6.794;2022-08-21T12:08:06;7.50;;;2.10;;
5569;SDS011;2808;51.240;6.794;2022-08-21T12:10:38;7.40;;;1.93;;
5569;SDS011;2808;51.240;6.794;2022-08-21T12:13:09;6.07;;;2.10;;
5569;SDS011;2808;51.240;6.794;2022-08-21T12:15:41;6.60;;;2.13;;
5569;SDS011;2808;51.240;6.794;2022-08-21T12:18:20;9.73;;;2.03;;
5569;SDS011;2808;51.240;6.794;2022-08-21T12:21:00;6.77;;;1.70;;
5569;SDS011;2808;51.240;6.794;2022-08-21T12:23:32;9.00;;;1.83;;
5569;SDS011;2808;51.240;6.794;2022-08-21T12:29:13;7.43;;;2.03;;
5569;SDS011;2808;51.240;6.794;2022-08-21T12:31:50;5.47;;;1.80;;
5569;SDS011;2808;51.240;6.794;2022-08-21T12:34:22;7.13;;;1.60;;
5569;SDS011;2808;51.240;6.794;2022-08-21T12:36:56;5.30;;;1.40;;
5569;SDS011;2808;51.240;6.794;2022-08-21T12:39:27;10.73;;;2.10;;
5569;SDS011;2808;51.240;6.794;2022-08-21T12:42:05;8.00;;;1.90;;
5569;SDS011;2808;51.240;6.794;2022-08-21T12:44:39;8.83;;;1.70;;
5569;SDS011;2808;51.240;6.794;2022-08-21T12:47:26;7.13;;;1.87;;
5569;SDS011;2808;51.240;6.794;2022-08-21T12:49:58;7.30;;;1.80;;
5569;SDS011;2808;51.240;6.794;2022-08-21T12:52:32;7.30;;;1.70;;
5569;SDS011;2808;51.240;6.794;2022-08-21T12:55:05;8.47;;;1.73;;
5569;SDS011;2808;51.240;6.794;2022-08-21T12:57:47;6.00;;;1.73;;
5569;SDS011;2808;51.240;6.794;2022-08-21T13:00:20;5.60;;;1.57;;
5569;SDS011;2808;51.240;6.794;2022-08-21T13:02:51;6.70;;;1.87;;
5569;SDS011;2808;51.240;6.794;2022-08-21T13:05:26;5.40;;;2.07;;
5569;SDS011;2808;51.240;6.794;2022-08-21T13:07:57;7.17;;;1.80;;
5569;SDS011;2808;51.240;6.794;2022-08-21T13:10:26;9.83;;;2.30;;
5569;SDS011;2808;51.240;6.794;2022-08-21T13:12:56;8.47;;;1.97;;
5569;SDS011;2808;51.240;6.794;2022-08-21T13:15:26;8.77;;;1.73;;
5569;SDS011;2808;51.240;6.794;2022-08-21T13:18:00;4.93;;;1.70;;
5569;SDS011;2808;51.240;6.794;2022-08-21T13:20:32;6.10;;;1.60;;
5569;SDS011;2808;51.240;6.794;2022-08-21T13:23:06;4.10;;;1.50;;
5569;SDS011;2808;51.240;6.794;2022-08-21T13:26:00;8.07;;;2.03;;
5569;SDS011;2808;51.240;6.794;2022-08-21T13:28:38;6.30;;;1.67;;
5569;SDS011;2808;51.240;6.794;2022-08-21T13:31:09;5.90;;;1.50;;
5569;SDS011;2808;51.240;6.794;2022-08-21T13:33:39;4.80;;;1.70;;
5569;SDS011;2808;51.240;6.794;2022-08-21T13:36:09;6.30;;;1.50;;
5569;SDS011;2808;51.240;6.794;2022-08-21T13:38:40;5.70;;;1.60;;
5569;SDS011;2808;51.240;6.794;2022-08-21T13:41:12;7.20;;;1.70;;
5569;SDS011;2808;51.240;6.794;2022-08-21T13:43:50;6.10;;;1.53;;
5569;SDS011;2808;51.240;6.794;2022-08-21T13:46:26;5.47;;;1.47;;
5569;SDS011;2808;51.240;6.794;2022-08-21T13:48:57;4.77;;;1.60;;
5569;SDS011;2808;51.240;6.794;2022-08-21T13:51:26;6.97;;;1.57;;
5569;SDS011;2808;51.240;6.794;2022-08-21T13:53:57;9.63;;;2.20;;
5569;SDS011;2808;51.240;6.794;2022-08-21T13:56:29;9.50;;;1.83;;
5569;SDS011;2808;51.240;6.794;2022-08-21T13:58:58;5.53;;;1.40;;
5569;SDS011;2808;51.240;6.794;2022-08-21T14:01:31;7.07;;;1.90;;
5569;SDS011;2808;51.240;6.794;2022-08-21T14:04:03;8.33;;;1.90;;
5569;SDS011;2808;51.240;6.794;2022-08-21T14:06:34;5.90;;;1.57;;
5569;SDS011;2808;51.240;6.794;2022-08-21T14:09:07;6.07;;;1.63;;
5569;SDS011;2808;51.240;6.794;2022-08-21T14:11:36;7.83;;;1.90;;
5569;SDS011;2808;51.240;6.794;2022-08-21T14:14:05;6.70;;;2.40;;
5569;SDS011;2808;51.240;6.794;2022-08-21T14:16:43;8.43;;;2.13;;
5569;SDS011;2808;51.240;6.794;2022-08-21T14:19:20;4.53;;;1.57;;
5569;SDS011;2808;51.240;6.794;2022-08-21T14:21:52;6.07;;;1.80;;
5569;SDS011;2808;51.240;6.794;2022-08-21T14:24:27;5.73;;;1.50;;
5569;SDS011;2808;51.240;6.794;2022-08-21T14:26:56;7.37;;;1.90;;
5569;SDS011;2808;51.240;6.794;2022-08-21T14:29:31;6.80;;;2.07;;
5569;SDS011;2808;51.240;6.794;2022-08-21T14:32:08;7.47;;;2.20;;
5569;SDS011;2808;51.240;6.794;2022-08-21T14:34:41;6.37;;;2.10;;
5569;SDS011;2808;51.240;6.794;2022-08-21T14:37:10;7.70;;;1.80;;
5569;SDS011;2808;51.240;6.794;2022-08-21T14:39:37;6.13;;;1.60;;
5569;SDS011;2808;51.240;6.794;2022-08-21T14:42:05;6.63;;;1.90;;
5569;SDS011;2808;51.240;6.794;2022-08-21T14:44:33;5.80;;;1.60;;
5569;SDS011;2808;51.240;6.794;2022-08-21T14:47:01;4.20;;;1.73;;
5569;SDS011;2808;51.240;6.794;2022-08-21T14:49:29;4.83;;;1.53;;
5569;SDS011;2808;51.240;6.794;2022-08-21T14:51:58;5.77;;;1.80;;
5569;SDS011;2808;51.240;6.794;2022-08-21T14:54:26;5.33;;;1.50;;
5569;SDS011;2808;51.240;6.794;2022-08-21T14:56:55;3.67;;;1.43;;
5569;SDS011;2808;51.240;6.794;2022-08-21T14:59:24;7.93;;;1.73;;
5569;SDS011;2808;51.240;6.794;2022-08-21T15:01:52;6.77;;;1.80;;
5569;SDS011;2808;51.240;6.794;2022-08-21T15:04:21;6.37;;;1.90;;
5569;SDS011;2808;51.240;6.794;2022-08-21T15:06:48;5.60;;;1.87;;
5569;SDS011;2808;51.240;6.794;2022-08-21T15:09:19;7.00;;;1.93;;
5569;SDS011;2808;51.240;6.794;2022-08-21T15:11:46;6.10;;;1.67;;
5569;SDS011;2808;51.240;6.794;2022-08-21T15:14:17;9.23;;;1.80;;
5569;SDS011;2808;51.240;6.794;2022-08-21T15:16:47;6.53;;;1.80;;
5569;SDS011;2808;51.240;6.794;2022-08-21T15:19:16;7.03;;;1.60;;
5569;SDS011;2808;51.240;6.794;2022-08-21T15:21:44;5.13;;;1.83;;
5569;SDS011;2808;51.240;6.794;2022-08-21T15:24:11;4.33;;;1.53;;
5569;SDS011;2808;51.240;6.794;2022-08-21T15:26:40;7.30;;;1.77;;
5569;SDS011;2808;51.240;6.794;2022-08-21T15:29:10;4.73;;;1.83;;
5569;SDS011;2808;51.240;6.794;2022-08-21T15:31:39;5.63;;;1.83;;
5569;SDS011;2808;51.240;6.794;2022-08-21T15:34:17;7.20;;;2.47;;
5569;SDS011;2808;51.240;6.794;2022-08-21T15:36:46;9.70;;;1.97;;
5569;SDS011;2808;51.240;6.794;2022-08-21T15:39:14;5.80;;;1.80;;
5569;SDS011;2808;51.240;6.794;2022-08-21T15:41:44;4.13;;;1.30;;
5569;SDS011;2808;51.240;6.794;2022-08-21T15:44:12;6.43;;;2.37;;
5569;SDS011;2808;51.240;6.794;2022-08-21T15:46:41;8.13;;;1.93;;
5569;SDS011;2808;51.240;6.794;2022-08-21T15:49:09;4.43;;;1.77;;
5569;SDS011;2808;51.240;6.794;2022-08-21T15:51:37;4.80;;;1.87;;
5569;SDS011;2808;51.240;6.794;2022-08-21T15:54:04;6.83;;;2.20;;
5569;SDS011;2808;51.240;6.794;2022-08-21T15:56:36;7.83;;;1.53;;
5569;SDS011;2808;51.240;6.794;2022-08-21T15:59:07;6.00;;;1.87;;
5569;SDS011;2808;51.240;6.794;2022-08-21T16:01:43;5.20;;;1.53;;
5569;SDS011;2808;51.240;6.794;2022-08-21T16:04:11;6.93;;;1.93;;
5569;SDS011;2808;51.240;6.794;2022-08-21T16:06:45;3.83;;;1.50;;
5569;SDS011;2808;51.240;6.794;2022-08-21T16:09:14;6.53;;;1.77;;
5569;SDS011;2808;51.240;6.794;2022-08-21T16:11:41;7.83;;;2.10;;
5569;SDS011;2808;51.240;6.794;2022-08-21T16:14:11;7.27;;;1.90;;
5569;SDS011;2808;51.240;6.794;2022-08-21T16:16:43;5.10;;;2.00;;
5569;SDS011;2808;51.240;6.794;2022-08-21T16:19:11;6.40;;;1.97;;
5569;SDS011;2808;51.240;6.794;2022-08-21T16:21:40;8.80;;;2.00;;
5569;SDS011;2808;51.240;6.794;2022-08-21T16:24:09;8.27;;;2.00;;
5569;SDS011;2808;51.240;6.794;2022-08-21T16:26:36;8.10;;;1.87;;
5569;SDS011;2808;51.240;6.794;2022-08-21T16:29:04;4.60;;;1.50;;
5569;SDS011;2808;51.240;6.794;2022-08-21T16:31:34;7.07;;;1.70;;
5569;SDS011;2808;51.240;6.794;2022-08-21T16:34:02;6.30;;;1.77;;
5569;SDS011;2808;51.240;6.794;2022-08-21T16:36:30;5.60;;;1.83;;
5569;SDS011;2808;51.240;6.794;2022-08-21T16:38:57;6.37;;;2.00;;
5569;SDS011;2808;51.240;6.794;2022-08-21T16:41:26;9.60;;;1.93;;
5569;SDS011;2808;51.240;6.794;2022-08-21T16:44:03;8.20;;;1.80;;
5569;SDS011;2808;51.240;6.794;2022-08-21T16:46:34;6.00;;;2.13;;
5569;SDS011;2808;51.240;6.794;2022-08-21T16:49:04;8.83;;;3.00;;
5569;SDS011;2808;51.240;6.794;2022-08-21T16:51:32;8.73;;;3.33;;
5569;SDS011;2808;51.240;6.794;2022-08-21T16:54:00;5.23;;;1.90;;
5569;SDS011;2808;51.240;6.794;2022-08-21T16:56:28;8.20;;;2.20;;
5569;SDS011;2808;51.240;6.794;2022-08-21T16:58:56;7.00;;;3.13;;
5569;SDS011;2808;51.240;6.794;2022-08-21T17:01:29;7.60;;;2.27;;
5569;SDS011;2808;51.240;6.794;2022-08-21T17:04:00;7.70;;;2.20;;
5569;SDS011;2808;51.240;6.794;2022-08-21T17:06:28;10.17;;;2.10;;
5569;SDS011;2808;51.240;6.794;2022-08-21T17:08:55;9.57;;;2.23;;
5569;SDS011;2808;51.240;6.794;2022-08-21T17:11:26;6.47;;;2.37;;
5569;SDS011;2808;51.240;6.794;2022-08-21T17:14:00;7.83;;;2.80;;
5569;SDS011;2808;51.240;6.794;2022-08-21T17:16:33;8.93;;;2.03;;
5569;SDS011;2808;51.240;6.794;2022-08-21T17:19:05;4.83;;;1.80;;
5569;SDS011;2808;51.240;6.794;2022-08-21T17:21:36;6.23;;;2.10;;
5569;SDS011;2808;51.240;6.794;2022-08-21T17:24:08;4.70;;;1.90;;
5569;SDS011;2808;51.240;6.794;2022-08-21T17:26:37;5.90;;;2.30;;
5569;SDS011;2808;51.240;6.794;2022-08-21T17:29:04;6.07;;;1.47;;
5569;SDS011;2808;51.240;6.794;2022-08-21T17:31:34;7.90;;;2.57;;
5569;SDS011;2808;51.240;6.794;2022-08-21T17:34:02;5.17;;;1.53;;
5569;SDS011;2808;51.240;6.794;2022-08-21T17:36:32;6.90;;;1.60;;
5569;SDS011;2808;51.240;6.794;2022-08-21T17:38:59;22.23;;;1.80;;
5569;SDS011;2808;51.240;6.794;2022-08-21T17:41:28;6.37;;;1.70;;
5569;SDS011;2808;51.240;6.794;2022-08-21T17:43:56;6.33;;;1.70;;
5569;SDS011;2808;51.240;6.794;2022-08-21T17:46:27;5.67;;;2.20;;
5569;SDS011;2808;51.240;6.794;2022-08-21T17:48:54;8.97;;;2.13;;
5569;SDS011;2808;51.240;6.794;2022-08-21T17:51:22;7.77;;;2.20;;
5569;SDS011;2808;51.240;6.794;2022-08-21T17:53:53;8.90;;;1.90;;
5569;SDS011;2808;51.240;6.794;2022-08-21T17:56:21;8.57;;;3.10;;